Time;durP1;ratioP1;P1;durP2;ratioP2;P2;SDS_P1;SDS_P2;PMS_P1;PMS_P2;Temp;Humidity;BMP_temperature;BMP_pressure;BME280_temperature;BME280_humidity;BME280_pressure;Samples;Min_cycle;Max_cycle;Signal;HPM_P1;HPM_P2
2022/02/16 00:00:32;;;;;;;29.05;10.70;;;;;;;2.89;68.63;102242.37;1841054;78;21092;-60
2022/02/16 00:03:01;;;;;;;26.52;12.90;;;;;;;2.90;68.57;102241.97;1841297;78;21073;-61
2022/02/16 00:05:29;;;;;;;31.23;12.50;;;;;;;2.92;68.51;102237.66;1841328;78;21048;-62
2022/02/16 00:07:58;;;;;;;26.87;10.98;;;;;;;2.93;68.52;102238.53;1841329;78;21060;-62
2022/02/16 00:10:27;;;;;;;36.60;12.80;;;;;;;2.96;68.44;102240.76;1841405;78;21167;-62
2022/02/16 00:12:56;;;;;;;25.30;11.65;;;;;;;2.98;68.37;102236.45;1841292;78;21052;-62
2022/02/16 00:15:25;;;;;;;27.10;12.68;;;;;;;2.96;68.46;102236.86;1841318;78;21043;-62
2022/02/16 00:17:54;;;;;;;25.20;11.25;;;;;;;2.92;68.61;102236.36;1841237;78;21092;-62
2022/02/16 00:20:23;;;;;;;23.98;10.35;;;;;;;2.90;68.72;102231.13;1841313;78;21119;-62
2022/02/16 00:22:52;;;;;;;39.65;15.58;;;;;;;2.89;68.96;102234.56;1841332;78;21081;-62
2022/02/16 00:25:21;;;;;;;28.95;12.07;;;;;;;2.88;68.91;102234.13;1841407;78;21037;-62
2022/02/16 00:27:50;;;;;;;30.55;12.50;;;;;;;2.88;68.90;102239.77;1841558;78;21036;-61
2022/02/16 00:30:19;;;;;;;28.73;13.80;;;;;;;2.90;68.80;102238.06;1841306;78;21022;-61
2022/02/16 00:32:47;;;;;;;36.13;19.00;;;;;;;2.94;68.76;102233.36;1841236;78;21610;-61
2022/02/16 00:35:16;;;;;;;25.37;13.75;;;;;;;2.98;68.74;102235.58;1841308;78;21014;-62
2022/02/16 00:37:45;;;;;;;27.62;11.85;;;;;;;3.01;68.73;102227.41;1841299;78;21068;-62
2022/02/16 00:40:14;;;;;;;26.23;11.93;;;;;;;3.05;68.67;102231.80;1841286;78;21103;-62
2022/02/16 00:42:44;;;;;;;22.82;10.58;;;;;;;3.07;68.56;102224.89;1841323;78;21115;-60
2022/02/16 00:45:13;;;;;;;36.17;18.60;;;;;;;3.13;68.47;102228.44;1841193;78;21041;-61
2022/02/16 00:47:43;;;;;;;40.30;24.20;;;;;;;3.15;68.45;102234.55;1841283;78;21065;-60
2022/02/16 00:50:12;;;;;;;30.30;13.68;;;;;;;3.18;68.46;102222.45;1841221;77;21180;-61
2022/02/16 00:52:41;;;;;;;30.65;12.93;;;;;;;3.20;68.48;102214.67;1841250;78;21084;-61
2022/02/16 00:55:10;;;;;;;23.55;12.23;;;;;;;3.20;68.59;102211.64;1841260;78;21069;-61
2022/02/16 00:57:39;;;;;;;27.50;12.28;;;;;;;3.22;68.57;102215.56;1841158;78;21511;-61
2022/02/16 01:00:09;;;;;;;21.73;9.75;;;;;;;3.20;68.72;102207.73;1841296;78;21053;-61
2022/02/16 01:02:39;;;;;;;30.37;12.70;;;;;;;3.13;68.82;102203.72;1840454;78;21072;-62
2022/02/16 01:05:09;;;;;;;23.60;11.95;;;;;;;3.12;68.88;102205.86;1841271;78;21053;-63
2022/02/16 01:07:38;;;;;;;36.17;13.62;;;;;;;3.15;68.86;102205.91;1841364;78;21053;-63
2022/02/16 01:10:09;;;;;;;30.62;13.40;;;;;;;3.16;69.01;102208.98;1841174;78;21492;-61
2022/02/16 01:12:39;;;;;;;32.78;12.55;;;;;;;3.17;69.06;102209.41;1841343;78;21049;-62
2022/02/16 01:15:08;;;;;;;30.35;11.95;;;;;;;3.18;69.00;102200.77;1841262;78;21183;-63
2022/02/16 01:17:39;;;;;;;29.42;11.78;;;;;;;3.21;68.93;102193.88;1840495;78;21057;-63
2022/02/16 01:20:11;;;;;;;24.75;12.23;;;;;;;3.25;68.94;102196.10;1840458;78;21088;-63
2022/02/16 01:22:41;;;;;;;26.07;9.65;;;;;;;3.27;69.07;102201.77;1841149;78;21077;-63
2022/02/16 01:25:11;;;;;;;22.65;9.43;;;;;;;3.29;69.08;102203.09;1840954;78;21565;-63
2022/02/16 01:27:41;;;;;;;26.68;11.83;;;;;;;3.30;68.91;102202.22;1815458;78;21432;-63
2022/02/16 01:30:11;;;;;;;26.42;10.32;;;;;;;3.29;68.94;102208.30;1841255;78;21495;-63
2022/02/16 01:32:44;;;;;;;20.50;9.30;;;;;;;3.28;69.15;102205.23;1840322;78;21052;-60
2022/02/16 01:35:13;;;;;;;25.10;10.13;;;;;;;3.28;69.24;102213.05;1841173;78;21602;-60
2022/02/16 01:37:43;;;;;;;18.87;9.25;;;;;;;3.27;69.22;102208.71;1815494;78;21576;-60
2022/02/16 01:40:12;;;;;;;20.23;9.15;;;;;;;3.25;69.20;102218.23;1841348;78;21587;-60
2022/02/16 01:42:42;;;;;;;22.45;10.23;;;;;;;3.21;69.23;102219.02;1841261;78;21064;-61
2022/02/16 01:45:13;;;;;;;22.60;8.75;;;;;;;3.18;69.28;102224.19;1840010;78;21131;-60
2022/02/16 01:47:42;;;;;;;20.27;9.53;;;;;;;3.18;69.31;102225.49;1841138;78;21606;-64
2022/02/16 01:50:11;;;;;;;21.75;10.25;;;;;;;3.14;69.44;102231.51;1841423;78;21021;-64
2022/02/16 01:52:41;;;;;;;26.57;11.95;;;;;;;3.05;69.63;102234.40;1841185;77;21610;-64
2022/02/16 01:55:12;;;;;;;24.37;10.85;;;;;;;3.03;69.66;102230.90;1841394;78;21546;-64
2022/02/16 01:57:43;;;;;;;34.25;10.53;;;;;;;3.05;69.59;102231.80;1841361;78;21056;-61
2022/02/16 02:00:15;;;;;;;28.67;12.30;;;;;;;3.12;69.50;102235.38;1841272;78;21152;-62
2022/02/16 02:02:46;;;;;;;27.80;12.63;;;;;;;3.16;69.44;102239.78;1841368;78;21113;-62
2022/02/16 02:05:35;;;;;;;25.40;12.37;;;;;;;3.22;69.32;102241.59;1840039;78;21076;-62
2022/02/16 02:08:05;;;;;;;29.20;12.93;;;;;;;3.23;69.26;102234.25;1841377;78;21172;-62
2022/02/16 02:10:34;;;;;;;26.50;12.58;;;;;;;3.26;69.22;102230.37;1841240;78;21545;-62
2022/02/16 02:13:03;;;;;;;32.03;14.70;;;;;;;3.27;69.26;102226.94;1841335;78;21495;-62
2022/02/16 02:15:46;;;;;;;25.72;11.93;;;;;;;3.27;69.41;102223.89;1840923;78;21146;-62
2022/02/16 02:18:18;;;;;;;24.95;11.53;;;;;;;3.24;69.57;102230.78;1840548;78;21499;-61
2022/02/16 02:20:47;;;;;;;26.12;12.33;;;;;;;3.24;69.68;102235.98;1841450;78;21115;-61
2022/02/16 02:23:17;;;;;;;34.45;13.83;;;;;;;3.26;69.62;102245.99;1841329;78;21830;-62
2022/02/16 02:25:52;;;;;;;24.18;12.03;;;;;;;3.26;69.63;102244.69;1841359;78;21096;-61
2022/02/16 02:28:23;;;;;;;23.07;11.68;;;;;;;3.27;69.58;102242.12;1841355;78;21037;-61
2022/02/16 02:30:54;;;;;;;25.37;12.68;;;;;;;3.30;69.50;102247.78;1841209;77;21143;-61
2022/02/16 02:33:25;;;;;;;22.58;10.80;;;;;;;3.33;69.50;102249.14;1841186;78;21077;-62
2022/02/16 02:35:55;;;;;;;20.08;10.03;;;;;;;3.35;69.55;102251.34;1841438;78;21073;-62
2022/02/16 02:38:26;;;;;;;25.80;10.38;;;;;;;3.39;69.50;102247.92;1841425;78;21072;-61
2022/02/16 02:41:00;;;;;;;23.73;9.93;;;;;;;3.43;69.46;102252.34;1841453;78;21048;-61
2022/02/16 02:43:32;;;;;;;26.23;9.75;;;;;;;3.46;69.50;102251.50;1840990;78;21071;-61
2022/02/16 02:46:02;;;;;;;20.40;9.30;;;;;;;3.48;69.55;102251.97;1841264;78;21099;-62
2022/02/16 02:48:33;;;;;;;24.32;9.25;;;;;;;3.51;69.53;102252.45;1840281;78;21138;-61
2022/02/16 02:51:02;;;;;;;20.77;10.03;;;;;;;3.53;69.56;102248.58;1841457;78;21017;-61
2022/02/16 02:53:31;;;;;;;26.62;10.08;;;;;;;3.56;69.59;102242.08;1868988;76;21057;-61
2022/02/16 02:55:59;;;;;;;25.12;10.15;;;;;;;3.59;69.64;102236.93;1872559;77;21057;-61
2022/02/16 02:58:28;;;;;;;24.35;10.30;;;;;;;3.62;69.73;102235.68;1872361;77;21637;-61
2022/02/16 03:00:58;;;;;;;22.10;9.88;;;;;;;3.65;69.83;102237.91;1836385;78;21025;-61
2022/02/16 03:03:28;;;;;;;23.07;10.90;;;;;;;3.62;69.94;102231.77;1872586;77;21020;-61
2022/02/16 03:05:57;;;;;;;23.85;10.10;;;;;;;3.61;69.94;102235.22;1869079;77;21065;-61
2022/02/16 03:08:26;;;;;;;20.92;10.00;;;;;;;3.58;70.11;102232.56;1869184;76;21476;-61
2022/02/16 03:10:55;;;;;;;25.15;10.20;;;;;;;3.57;70.18;102229.52;1868946;77;21142;-62
2022/02/16 03:13:24;;;;;;;24.00;10.75;;;;;;;3.56;70.33;102227.76;1869036;77;21054;-62
2022/02/16 03:15:55;;;;;;;25.23;10.60;;;;;;;3.56;70.46;102235.58;1868167;77;21102;-59
2022/02/16 03:18:27;;;;;;;23.70;10.10;;;;;;;3.55;70.46;102240.36;1868963;77;21580;-60
2022/02/16 03:20:55;;;;;;;28.50;11.12;;;;;;;3.53;70.52;102237.72;1869187;77;21037;-61
2022/02/16 03:23:25;;;;;;;29.12;9.83;;;;;;;3.51;70.62;102240.73;1868951;77;21155;-61
2022/02/16 03:25:53;;;;;;;27.00;11.20;;;;;;;3.54;70.62;102239.89;1869063;77;21131;-60
2022/02/16 03:28:24;;;;;;;19.55;9.28;;;;;;;3.56;70.67;102234.27;1868594;77;21102;-62
2022/02/16 03:30:57;;;;;;;26.45;10.68;;;;;;;3.62;70.62;102235.68;1867621;77;21544;-62
2022/02/16 03:33:26;;;;;;;20.32;9.23;;;;;;;3.66;70.53;102230.52;1869035;77;21022;-63
2022/02/16 03:35:55;;;;;;;25.52;10.10;;;;;;;3.71;70.43;102224.08;1869038;77;21049;-64
2022/02/16 03:38:24;;;;;;;25.32;10.05;;;;;;;3.73;70.49;102223.67;1869063;77;21144;-63
2022/02/16 03:40:53;;;;;;;27.75;10.58;;;;;;;3.78;70.59;102230.23;1869045;77;21046;-60
2022/02/16 03:43:23;;;;;;;19.12;9.03;;;;;;;3.82;70.67;102230.73;1869047;77;21136;-60
2022/02/16 03:45:52;;;;;;;25.10;9.75;;;;;;;3.86;70.73;102231.22;1869214;77;21484;-61
2022/02/16 03:48:21;;;;;;;22.55;10.13;;;;;;;3.89;70.70;102244.70;1869023;77;21523;-61
2022/02/16 03:50:49;;;;;;;22.95;10.23;;;;;;;3.77;71.12;102252.81;1869122;77;21057;-61
2022/02/16 03:53:20;;;;;;;22.90;10.18;;;;;;;3.66;71.13;102263.08;1865002;77;21594;-60
2022/02/16 03:55:49;;;;;;;20.95;9.68;;;;;;;3.56;71.43;102257.72;1861267;77;21167;-60
2022/02/16 03:58:18;;;;;;;32.05;11.10;;;;;;;3.44;72.15;102264.50;1861341;77;21151;-60
2022/02/16 04:00:47;;;;;;;20.70;9.73;;;;;;;3.44;71.92;102267.10;1861412;77;21528;-60
2022/02/16 04:03:16;;;;;;;22.32;9.05;;;;;;;3.52;71.76;102266.34;1861169;77;21197;-64
2022/02/16 04:05:45;;;;;;;24.92;9.98;;;;;;;3.61;71.56;102270.37;1861301;77;21086;-64
2022/02/16 04:08:15;;;;;;;31.48;10.65;;;;;;;3.66;71.48;102264.81;1861358;77;21057;-64
2022/02/16 04:10:44;;;;;;;25.68;10.80;;;;;;;3.72;71.50;102262.28;1861307;77;21116;-62
2022/02/16 04:13:14;;;;;;;24.05;10.15;;;;;;;3.80;71.46;102261.98;1861246;77;21567;-61
2022/02/16 04:15:43;;;;;;;22.48;9.90;;;;;;;3.85;71.36;102261.63;1861036;77;21205;-60
2022/02/16 04:18:12;;;;;;;22.48;10.00;;;;;;;3.91;71.33;102259.92;1861171;77;21557;-61
2022/02/16 04:20:41;;;;;;;26.30;10.38;;;;;;;3.92;71.40;102262.55;1861220;77;21533;-61
2022/02/16 04:23:13;;;;;;;24.55;10.93;;;;;;;3.93;71.47;102257.80;1861354;77;21209;-61
2022/02/16 04:25:43;;;;;;;28.30;10.90;;;;;;;3.94;71.48;102268.66;1861204;77;21146;-61
2022/02/16 04:28:13;;;;;;;25.25;9.70;;;;;;;3.97;71.38;102269.14;1861084;77;21156;-61
2022/02/16 04:30:43;;;;;;;23.40;9.85;;;;;;;3.98;71.28;102262.62;1861306;77;21070;-61
2022/02/16 04:33:12;;;;;;;24.77;11.10;;;;;;;4.00;71.27;102262.65;1861323;77;21568;-61
2022/02/16 04:35:41;;;;;;;25.97;11.75;;;;;;;3.97;71.42;102266.10;1861132;77;21560;-60
2022/02/16 04:38:10;;;;;;;27.07;15.75;;;;;;;3.98;71.37;102275.66;1861350;77;21460;-61
2022/02/16 04:40:39;;;;;;;20.72;9.85;;;;;;;3.99;71.44;102272.20;1861128;77;21153;-61
2022/02/16 04:43:08;;;;;;;23.70;10.53;;;;;;;4.01;71.36;102274.84;1861220;77;21509;-61
2022/02/16 04:45:37;;;;;;;25.02;11.05;;;;;;;4.04;71.32;102277.50;1861240;77;21603;-61
2022/02/16 04:48:26;;;;;;;26.97;12.03;;;;;;;4.02;71.47;102274.86;1861350;77;21014;-61
2022/02/16 04:50:56;;;;;;;28.35;11.78;;;;;;;4.00;71.63;102280.89;1841178;78;21081;-62
2022/02/16 04:53:27;;;;;;;23.50;10.78;;;;;;;4.01;71.79;102287.87;1841255;78;21124;-60
2022/02/16 04:55:56;;;;;;;26.17;11.03;;;;;;;4.00;71.92;102284.80;1811135;79;21089;-60
2022/02/16 04:58:25;;;;;;;24.47;11.43;;;;;;;3.97;72.01;102284.34;1811127;79;21139;-61
2022/02/16 05:00:54;;;;;;;19.42;9.65;;;;;;;3.95;72.10;102287.80;1809451;79;21144;-62
2022/02/16 05:03:25;;;;;;;23.30;9.98;;;;;;;3.92;72.27;102289.92;1840724;77;21084;-62
2022/02/16 05:05:55;;;;;;;23.12;9.50;;;;;;;3.94;72.36;102289.51;1810472;79;21065;-62
2022/02/16 05:08:24;;;;;;;23.35;9.28;;;;;;;3.97;72.46;102296.52;1885515;76;21493;-62
2022/02/16 05:10:53;;;;;;;25.80;11.03;;;;;;;3.98;72.54;102290.42;1885472;76;21520;-62
2022/02/16 05:13:26;;;;;;;22.85;13.45;;;;;;;4.03;72.37;102299.19;1884377;76;21503;-62
2022/02/16 05:15:55;;;;;;;33.58;17.55;;;;;;;4.07;72.33;102299.67;1885360;76;21061;-64
2022/02/16 05:18:25;;;;;;;30.55;15.32;;;;;;;4.11;72.37;102297.54;1885373;76;21631;-62
2022/02/16 05:20:55;;;;;;;26.48;14.05;;;;;;;4.15;72.24;102303.27;1885277;76;21157;-62
2022/02/16 05:23:25;;;;;;;30.40;16.75;;;;;;;4.18;72.21;102308.50;1885488;76;21018;-60
2022/02/16 05:25:59;;;;;;;31.17;17.87;;;;;;;4.22;72.06;102301.19;1884238;76;21153;-60
2022/02/16 05:28:28;;;;;;;38.48;20.23;;;;;;;4.26;71.96;102303.41;1885437;76;21524;-64
2022/02/16 05:30:56;;;;;;;30.12;16.48;;;;;;;4.25;72.10;102310.77;1885439;76;21097;-63
2022/02/16 05:33:29;;;;;;;31.80;17.48;;;;;;;4.25;72.13;102316.84;1885504;76;21524;-63
2022/02/16 05:35:58;;;;;;;33.92;17.82;;;;;;;4.23;72.34;102314.66;1885534;76;21143;-62
2022/02/16 05:38:28;;;;;;;36.08;15.72;;;;;;;4.20;72.60;102312.00;1885523;76;21547;-62
2022/02/16 05:40:57;;;;;;;35.20;22.05;;;;;;;4.19;72.68;102317.22;1885607;76;21520;-61
2022/02/16 05:43:26;;;;;;;41.92;25.90;;;;;;;4.22;72.54;102314.22;1885500;76;21570;-60
2022/02/16 05:45:55;;;;;;;35.00;20.77;;;;;;;4.28;72.41;102308.61;1885619;76;21594;-61
2022/02/16 05:48:24;;;;;;;28.40;15.50;;;;;;;4.34;72.25;102312.62;1885507;76;21145;-60
2022/02/16 05:50:54;;;;;;;33.13;19.27;;;;;;;4.40;72.17;102313.98;1884969;76;21070;-61
2022/02/16 05:53:23;;;;;;;26.93;16.87;;;;;;;4.47;72.09;102316.25;1885546;76;21078;-60
2022/02/16 05:55:52;;;;;;;21.60;12.00;;;;;;;4.48;72.19;102319.28;1885348;76;21136;-61
2022/02/16 05:58:21;;;;;;;25.97;11.50;;;;;;;4.50;72.12;102311.94;1885668;76;21070;-61
2022/02/16 06:00:51;;;;;;;24.00;12.15;;;;;;;4.56;72.05;102306.78;1885677;76;21093;-61
2022/02/16 06:03:21;;;;;;;20.30;9.18;;;;;;;4.62;71.91;102308.14;1881025;76;21160;-61
2022/02/16 06:05:50;;;;;;;20.15;9.50;;;;;;;4.67;71.76;102311.22;1885513;76;21540;-61
2022/02/16 06:08:19;;;;;;;28.65;10.20;;;;;;;4.70;71.64;102306.91;1885496;76;21448;-61
2022/02/16 06:10:48;;;;;;;28.35;11.55;;;;;;;4.74;71.61;102312.63;1885585;76;21562;-61
2022/02/16 06:13:19;;;;;;;28.42;12.58;;;;;;;4.80;71.49;102307.91;1885678;76;21097;-61
2022/02/16 06:15:47;;;;;;;26.10;12.43;;;;;;;4.87;71.36;102304.91;1885592;76;21034;-60
2022/02/16 06:18:16;;;;;;;104.40;38.63;;;;;;;4.92;71.25;102313.22;1885448;76;21147;-60
2022/02/16 06:20:45;;;;;;;82.50;30.00;;;;;;;4.97;71.12;102308.93;1885357;76;21085;-61
2022/02/16 06:23:15;;;;;;;25.80;11.80;;;;;;;5.05;70.98;102309.44;1885006;76;21050;-60
2022/02/16 06:25:44;;;;;;;24.23;12.20;;;;;;;5.09;70.84;102304.67;1858337;76;21042;-60
2022/02/16 06:28:14;;;;;;;25.90;11.40;;;;;;;5.14;70.73;102301.23;1885527;76;21143;-60
2022/02/16 06:30:43;;;;;;;38.55;11.22;;;;;;;5.19;70.70;102305.21;1885471;76;21062;-61
2022/02/16 06:33:13;;;;;;;26.33;13.22;;;;;;;5.22;70.60;102307.42;1884651;76;21567;-62
2022/02/16 06:35:42;;;;;;;27.02;11.33;;;;;;;5.25;70.52;102314.83;1885574;76;21046;-61
2022/02/16 06:38:12;;;;;;;23.32;10.93;;;;;;;5.22;70.55;102312.64;1885416;76;21579;-61
2022/02/16 06:40:40;;;;;;;22.05;10.30;;;;;;;5.23;70.47;102312.20;1885627;76;21531;-61
2022/02/16 06:43:10;;;;;;;21.85;9.08;;;;;;;5.23;70.42;102310.89;1885526;76;21452;-61
2022/02/16 06:45:40;;;;;;;20.52;10.58;;;;;;;5.23;70.40;102316.12;1885393;76;21125;-60
2022/02/16 06:48:09;;;;;;;17.60;8.65;;;;;;;5.24;70.42;102316.58;1885494;76;21070;-60
2022/02/16 06:50:38;;;;;;;17.02;7.67;;;;;;;5.27;70.44;102321.80;1885407;76;21148;-60
2022/02/16 06:53:09;;;;;;;17.37;8.30;;;;;;;5.31;70.42;102320.09;1885228;76;21081;-59
2022/02/16 06:55:38;;;;;;;18.92;8.60;;;;;;;5.34;70.39;102315.77;1858390;76;21046;-60
2022/02/16 06:58:07;;;;;;;16.42;7.90;;;;;;;5.41;70.34;102316.70;1885568;76;21022;-61
2022/02/16 07:00:36;;;;;;;18.15;11.25;;;;;;;5.47;70.27;102310.66;1885587;76;21449;-60
2022/02/16 07:03:26;;;;;;;25.43;13.30;;;;;;;5.54;70.18;102307.22;1885564;76;21050;-60
2022/02/16 07:06:00;;;;;;;23.70;12.15;;;;;;;5.55;70.13;102312.88;1808651;79;21087;-61
2022/02/16 07:08:30;;;;;;;25.85;11.83;;;;;;;5.62;70.00;102314.66;1808964;79;21048;-61
2022/02/16 07:11:00;;;;;;;24.70;10.50;;;;;;;5.71;69.92;102308.19;1808878;79;21072;-62
2022/02/16 07:13:29;;;;;;;21.50;11.08;;;;;;;5.83;69.83;102305.20;1809077;79;21060;-61
2022/02/16 07:15:58;;;;;;;21.40;9.48;;;;;;;5.92;69.69;102304.84;1808938;79;21122;-60
2022/02/16 07:18:29;;;;;;;20.27;8.73;;;;;;;6.04;69.58;102295.34;1809037;79;21143;-60
2022/02/16 07:20:59;;;;;;;18.65;7.85;;;;;;;6.14;69.40;102295.40;1806307;79;21060;-61
2022/02/16 07:23:29;;;;;;;21.68;8.23;;;;;;;6.24;69.19;102292.38;1809023;79;21640;-62
2022/02/16 07:25:57;;;;;;;15.20;7.58;;;;;;;6.32;68.94;102289.78;1809007;79;21103;-62
2022/02/16 07:28:28;;;;;;;24.23;9.05;;;;;;;6.42;68.84;102292.88;1808280;79;21171;-62
2022/02/16 07:30:57;;;;;;;22.20;9.80;;;;;;;6.56;68.66;102297.70;1809132;79;21522;-62
2022/02/16 07:33:26;;;;;;;21.93;10.05;;;;;;;6.70;68.49;102296.88;1809005;78;21115;-62
2022/02/16 07:35:55;;;;;;;22.05;7.70;;;;;;;6.79;68.27;102292.97;1808883;79;21628;-62
2022/02/16 07:38:24;;;;;;;21.65;10.00;;;;;;;6.80;68.16;102297.31;1809029;79;21072;-62
2022/02/16 07:40:57;;;;;;;17.80;8.43;;;;;;;6.85;68.07;102296.89;1808961;79;21522;-62
2022/02/16 07:43:25;;;;;;;17.52;8.63;;;;;;;6.93;68.05;102295.17;1809030;79;21080;-62
2022/02/16 07:45:55;;;;;;;16.25;8.10;;;;;;;7.09;67.86;102293.86;1804711;79;21091;-61
2022/02/16 07:48:26;;;;;;;18.30;8.25;;;;;;;7.24;67.66;102294.30;1808872;78;21076;-60
2022/02/16 07:50:55;;;;;;;19.67;8.58;;;;;;;7.37;67.39;102291.23;1808971;79;21052;-60
2022/02/16 07:53:28;;;;;;;17.07;8.80;;;;;;;7.47;67.16;102291.64;1805100;79;21171;-60
2022/02/16 07:55:57;;;;;;;19.42;7.95;;;;;;;7.60;66.89;102290.77;1813567;78;21178;-62
2022/02/16 07:58:26;;;;;;;17.10;6.25;;;;;;;7.72;66.57;102294.66;1811810;78;21451;-62
2022/02/16 08:00:55;;;;;;;21.30;7.30;;;;;;;7.84;66.39;102286.32;1808718;78;21146;-62
2022/02/16 08:03:24;;;;;;;9.30;4.80;;;;;;;7.90;66.17;102283.70;1809036;79;21092;-63
2022/02/16 08:05:53;;;;;;;8.13;4.50;;;;;;;7.96;65.97;102290.23;1848794;77;21517;-64
2022/02/16 08:08:26;;;;;;;11.53;6.25;;;;;;;8.10;65.72;102287.13;1859193;77;21620;-64
2022/02/16 08:10:55;;;;;;;10.80;4.78;;;;;;;8.24;65.22;102289.67;1859173;77;21086;-63
2022/02/16 08:13:24;;;;;;;8.53;3.77;;;;;;;8.33;64.93;102288.77;1859829;76;21565;-63
2022/02/16 08:15:54;;;;;;;7.83;3.55;;;;;;;8.44;64.24;102289.61;1859956;77;21516;-62
2022/02/16 08:18:24;;;;;;;9.90;4.50;;;;;;;8.50;64.21;102294.84;1860974;77;21118;-64
2022/02/16 08:20:52;;;;;;;5.90;3.10;;;;;;;8.51;63.48;102287.84;1853559;77;21048;-61
2022/02/16 08:23:28;;;;;;;4.30;2.90;;;;;;;8.58;63.36;102288.69;1859052;77;21098;-62
2022/02/16 08:25:57;;;;;;;3.72;2.15;;;;;;;8.65;62.85;102286.42;1859251;77;21055;-63
2022/02/16 08:28:27;;;;;;;13.85;3.00;;;;;;;8.71;62.27;102283.78;1859422;77;21075;-62
2022/02/16 08:30:56;;;;;;;7.62;2.87;;;;;;;8.82;61.57;102282.40;1859450;77;21079;-61
2022/02/16 08:33:42;;;;;;;9.78;4.55;;;;;;;8.92;61.08;102286.69;1784617;79;21629;-61
2022/02/16 08:36:12;;;;;;;8.08;3.33;;;;;;;9.08;60.46;102285.69;1835145;77;21181;-62
2022/02/16 08:38:41;;;;;;;8.05;4.08;;;;;;;9.23;60.22;102286.45;1859347;77;21502;-62
2022/02/16 08:41:13;;;;;;;5.17;3.52;;;;;;;9.36;59.64;102289.84;1859263;77;21047;-61
2022/02/16 08:43:42;;;;;;;5.17;2.50;;;;;;;9.43;59.14;102291.53;1859348;76;21028;-62
2022/02/16 08:46:11;;;;;;;7.30;3.33;;;;;;;9.50;59.16;102281.39;1859071;77;21008;-61
2022/02/16 08:48:39;;;;;;;5.33;2.62;;;;;;;9.65;59.01;102279.91;1859137;77;21224;-62
2022/02/16 08:51:08;;;;;;;7.65;3.55;;;;;;;9.76;58.79;102285.05;1860807;77;21569;-60
2022/02/16 08:53:37;;;;;;;6.15;3.42;;;;;;;9.87;58.48;102284.94;1861280;77;21133;-61
2022/02/16 08:56:06;;;;;;;7.55;3.58;;;;;;;9.92;58.45;102288.36;1861067;77;21549;-60
2022/02/16 08:58:35;;;;;;;7.47;3.60;;;;;;;9.93;58.04;102279.59;1861154;77;21505;-61
2022/02/16 09:01:04;;;;;;;6.20;3.20;;;;;;;10.04;57.63;102284.28;1859942;77;21482;-61
2022/02/16 09:03:33;;;;;;;11.90;3.52;;;;;;;10.13;56.97;102274.55;1859335;77;21521;-62
2022/02/16 09:06:01;;;;;;;5.97;3.55;;;;;;;10.15;56.52;102272.77;1846324;77;21059;-63
2022/02/16 09:08:30;;;;;;;11.75;6.58;;;;;;;10.37;56.11;102270.30;1835814;78;21166;-62
2022/02/16 09:10:59;;;;;;;6.97;3.80;;;;;;;10.62;55.38;102266.88;1836080;78;21178;-63
2022/02/16 09:13:27;;;;;;;6.10;3.22;;;;;;;10.83;54.91;102262.17;1836124;77;21027;-64
2022/02/16 09:15:57;;;;;;;7.87;4.10;;;;;;;10.93;54.17;102257.16;1835937;78;21103;-63
2022/02/16 09:18:26;;;;;;;11.53;4.83;;;;;;;11.32;53.70;102259.14;1836052;78;21055;-62
2022/02/16 09:20:54;;;;;;;5.12;2.52;;;;;;;11.68;52.70;102251.45;1835920;78;21064;-63
2022/02/16 09:23:23;;;;;;;4.05;2.25;;;;;;;11.87;52.15;102250.17;1835984;77;21170;-62
2022/02/16 09:25:52;;;;;;;6.15;3.08;;;;;;;12.31;51.73;102247.53;1836050;78;21170;-62
2022/02/16 09:28:21;;;;;;;8.18;3.52;;;;;;;12.63;50.75;102254.70;1835921;78;21111;-63
2022/02/16 09:30:51;;;;;;;5.53;3.10;;;;;;;13.09;49.75;102246.97;1836128;77;21082;-61
2022/02/16 09:33:19;;;;;;;4.85;2.95;;;;;;;13.25;48.94;102250.56;1836143;78;21177;-63
2022/02/16 09:35:48;;;;;;;6.65;2.98;;;;;;;13.55;48.34;102246.71;1835858;77;21102;-63
2022/02/16 09:38:17;;;;;;;4.42;2.90;;;;;;;14.01;47.47;102241.43;1836123;77;21059;-62
2022/02/16 09:40:51;;;;;;;4.33;2.70;;;;;;;14.42;46.10;102234.89;1836077;77;21056;-62
2022/02/16 09:43:24;;;;;;;8.78;5.42;;;;;;;14.81;45.34;102227.03;1835844;78;21134;-60
2022/02/16 09:45:55;;;;;;;9.68;4.85;;;;;;;15.43;44.33;102225.80;1836055;77;21052;-61
2022/02/16 09:48:25;;;;;;;4.90;2.52;;;;;;;16.31;42.25;102218.56;1836010;78;21105;-62
2022/02/16 09:50:55;;;;;;;8.65;3.30;;;;;;;17.13;40.42;102216.97;1837147;78;21470;-62
2022/02/16 09:53:24;;;;;;;5.37;3.00;;;;;;;18.10;39.27;102209.09;1837562;77;21117;-63
2022/02/16 09:55:52;;;;;;;7.62;3.62;;;;;;;18.24;38.71;102201.75;1837525;78;21011;-61
2022/02/16 09:58:21;;;;;;;12.20;6.72;;;;;;;18.06;38.80;102200.38;1837539;78;21079;-63
2022/02/16 10:01:08;;;;;;;9.75;5.90;;;;;;;18.85;37.83;102202.77;1836963;78;21078;-63
2022/02/16 10:03:37;;;;;;;4.40;2.77;;;;;;;19.34;36.04;102195.83;1836062;78;21161;-63
2022/02/16 10:06:07;;;;;;;7.62;3.35;;;;;;;19.88;35.59;102190.27;1834615;77;21086;-62
2022/02/16 10:08:47;;;;;;;7.37;3.30;;;;;;;20.20;34.58;102183.98;1831380;78;21137;-60
2022/02/16 10:11:17;;;;;;;6.15;3.62;;;;;;;20.58;34.37;102182.27;1831308;78;21059;-60
2022/02/16 10:13:46;;;;;;;8.43;4.92;;;;;;;20.99;33.66;102172.76;1831458;78;21126;-60
2022/02/16 10:16:19;;;;;;;7.72;4.75;;;;;;;21.23;32.86;102171.73;1831318;78;21533;-60
2022/02/16 10:19:01;;;;;;;8.88;3.55;;;;;;;21.31;32.43;102160.55;1827652;78;21063;-66
2022/02/16 10:21:29;;;;;;;10.80;4.00;;;;;;;21.18;32.28;102159.95;1831337;78;21102;-66
2022/02/16 10:23:58;;;;;;;7.60;3.98;;;;;;;21.34;32.23;102158.54;1831436;78;21118;-64
2022/02/16 10:26:52;;;;;;;4.05;2.30;;;;;;;21.27;31.08;102161.70;1831405;78;21039;-63
2022/02/16 10:29:26;;;;;;;8.75;3.77;;;;;;;20.99;30.59;102161.56;1831434;78;21064;-63
2022/02/16 10:31:56;;;;;;;13.80;5.25;;;;;;;20.70;30.10;102165.98;1831335;78;21079;-64
2022/02/16 10:34:44;;;;;;;5.72;2.30;;;;;;;20.56;30.21;102161.87;1831480;78;21137;-64
2022/02/16 10:37:13;;;;;;;5.28;2.98;;;;;;;20.66;30.00;102157.76;1832014;78;21043;-60
2022/02/16 10:39:44;;;;;;;5.72;2.20;;;;;;;20.47;30.41;102145.88;1832935;78;21129;-62
2022/02/16 10:42:12;;;;;;;22.77;10.50;;;;;;;20.50;30.54;102141.70;1830298;77;21039;-62
2022/02/16 10:44:41;;;;;;;21.93;13.68;;;;;;;20.55;30.30;102140.11;1832841;78;21137;-63
2022/02/16 10:47:12;;;;;;;5.28;3.25;;;;;;;20.45;30.02;102139.77;1832827;78;21106;-65
2022/02/16 10:49:47;;;;;;;5.40;3.25;;;;;;;20.08;30.02;102129.01;1832656;78;21078;-62
2022/02/16 10:52:21;;;;;;;10.72;6.10;;;;;;;20.38;30.01;102120.55;1832840;78;21027;-62
2022/02/16 10:54:58;;;;;;;9.05;3.37;;;;;;;20.24;29.66;102123.17;1833037;78;21071;-64
2022/02/16 10:57:31;;;;;;;5.53;2.90;;;;;;;20.32;29.78;102126.24;1832690;78;21047;-63
2022/02/16 11:00:00;;;;;;;3.47;1.85;;;;;;;20.39;29.42;102122.26;1832171;78;21110;-63
2022/02/16 11:02:30;;;;;;;5.17;2.72;;;;;;;20.46;29.07;102119.25;1831265;78;21272;-63
2022/02/16 11:05:01;;;;;;;5.05;2.30;;;;;;;20.32;28.82;102108.00;1831298;78;21087;-63
2022/02/16 11:07:33;;;;;;;5.50;2.33;;;;;;;18.81;29.52;102109.59;1833979;77;21162;-63
2022/02/16 11:10:04;;;;;;;6.72;3.27;;;;;;;18.89;29.90;102105.59;1836116;78;21615;-63
2022/02/16 11:12:33;;;;;;;6.60;3.02;;;;;;;18.73;30.43;102096.62;1835935;78;21051;-64
2022/02/16 11:15:02;;;;;;;9.73;2.45;;;;;;;18.47;30.11;102092.63;1836099;78;21481;-64
2022/02/16 11:17:31;;;;;;;4.62;3.20;;;;;;;17.23;31.37;102092.33;1836040;78;21559;-63
2022/02/16 11:20:24;;;;;;;7.15;2.60;;;;;;;17.48;31.19;102088.52;1836023;78;21541;-63
2022/02/16 11:22:56;;;;;;;5.57;2.57;;;;;;;17.20;31.47;102079.14;1836318;78;21056;-70
2022/02/16 11:25:36;;;;;;;8.13;4.97;;;;;;;16.87;32.35;102079.72;1835983;77;21177;-77
2022/02/16 11:28:11;;;;;;;6.95;4.03;;;;;;;16.63;32.67;102078.11;1836143;78;21031;-76
2022/02/16 11:30:48;;;;;;;5.58;2.60;;;;;;;15.54;33.58;102080.73;1835673;78;21510;-77
2022/02/16 11:33:25;;;;;;;8.03;4.37;;;;;;;15.14;34.31;102073.83;1835984;78;21080;-78
2022/02/16 11:35:57;;;;;;;4.90;3.00;;;;;;;15.31;34.31;102074.52;1835963;78;21126;-68